createdAt,value
2018-04-02T00:01:40.026Z,1.61
2018-04-02T00:04:05.882Z,1.61
2018-04-02T00:06:31.783Z,1.58
2018-04-02T00:08:57.724Z,1.57
2018-04-02T00:11:23.569Z,1.54
2018-04-02T00:13:49.436Z,1.57
2018-04-02T00:16:15.354Z,1.57
2018-04-02T00:18:41.305Z,1.55
2018-04-02T00:21:07.160Z,1.55
2018-04-02T00:23:33.036Z,1.53
2018-04-02T00:25:58.884Z,1.57
2018-04-02T00:28:24.749Z,1.56
2018-04-02T00:30:50.669Z,1.61
2018-04-02T00:33:16.531Z,1.60
2018-04-02T00:35:42.391Z,1.63
2018-04-02T00:38:08.312Z,1.62
2018-04-02T00:40:34.148Z,1.64
2018-04-02T00:42:59.992Z,1.63
2018-04-02T00:45:25.897Z,1.63
2018-04-02T00:47:51.745Z,1.62
2018-04-02T00:50:17.610Z,1.59
2018-04-02T00:52:43.496Z,1.62
2018-04-02T00:55:09.346Z,1.59
2018-04-02T00:57:35.210Z,1.59
2018-04-02T01:00:01.126Z,1.54
2018-04-02T01:02:26.968Z,1.56
2018-04-02T01:04:52.839Z,1.53
2018-04-02T01:07:18.729Z,1.50
2018-04-02T01:09:44.605Z,1.49
2018-04-02T01:12:10.451Z,1.42
2018-04-02T01:14:36.348Z,1.39
2018-04-02T01:17:02.204Z,1.45
2018-04-02T01:19:28.104Z,1.41
2018-04-02T01:21:54.009Z,1.42
2018-04-02T01:24:19.876Z,1.40
2018-04-02T01:26:45.732Z,1.42
2018-04-02T01:29:11.656Z,1.44
2018-04-02T01:31:37.509Z,1.43
2018-04-02T01:34:03.360Z,1.48
2018-04-02T01:36:29.250Z,1.48
2018-04-02T01:38:55.129Z,1.47
2018-04-02T01:41:21.001Z,1.51
2018-04-02T01:43:46.907Z,1.54
2018-04-02T01:46:12.773Z,1.49
2018-04-02T01:48:38.621Z,1.54
2018-04-02T01:51:04.525Z,1.57
2018-04-02T01:53:30.380Z,1.58
2018-04-02T01:55:56.229Z,1.54
2018-04-02T01:58:22.117Z,1.51
2018-04-02T02:00:47.993Z,1.47
2018-04-02T02:03:13.856Z,1.48
2018-04-02T02:05:45.025Z,1.46
2018-04-02T02:08:10.885Z,1.43
2018-04-02T02:10:36.737Z,1.42
2018-04-02T02:13:02.641Z,1.35
2018-04-02T02:15:28.505Z,1.31
2018-04-02T02:17:54.374Z,1.26
2018-04-02T02:20:20.422Z,1.21
2018-04-02T02:22:46.309Z,1.21
2018-04-02T02:25:12.185Z,1.05
2018-04-02T02:27:38.072Z,1.09
2018-04-02T02:30:03.966Z,1.05
2018-04-02T02:32:29.832Z,1.00
2018-04-02T02:34:55.784Z,0.93
2018-04-02T02:37:21.621Z,0.88
2018-04-02T02:39:47.495Z,0.90
2018-04-02T02:42:13.397Z,0.90
2018-04-02T02:44:39.284Z,0.92
2018-04-02T02:47:05.180Z,0.85
2018-04-02T02:49:31.110Z,0.79
2018-04-02T02:51:56.974Z,0.77
2018-04-02T02:54:22.832Z,0.77
2018-04-02T02:56:48.710Z,0.75
2018-04-02T02:59:14.577Z,0.72
2018-04-02T03:01:40.445Z,0.67
2018-04-02T03:04:06.341Z,0.63
2018-04-02T03:06:32.204Z,0.64
2018-04-02T03:08:58.062Z,0.59
2018-04-02T03:11:23.981Z,0.52
2018-04-02T03:13:49.857Z,0.53
2018-04-02T03:16:15.715Z,0.58
2018-04-02T03:18:41.622Z,0.52
2018-04-02T03:21:07.537Z,0.50
2018-04-02T03:23:33.397Z,0.48
2018-04-02T03:25:59.309Z,0.45
2018-04-02T03:28:25.168Z,0.43
2018-04-02T03:30:51.045Z,0.39
2018-04-02T03:33:16.956Z,0.34
2018-04-02T03:35:42.817Z,0.35
2018-04-02T03:38:08.686Z,0.29
2018-04-02T03:40:34.592Z,0.31
2018-04-02T03:43:00.453Z,0.27
2018-04-02T03:45:26.304Z,0.30
2018-04-02T03:47:52.192Z,0.18
2018-04-02T03:50:18.070Z,0.24
2018-04-02T03:52:43.941Z,0.15
2018-04-02T03:55:09.845Z,0.15
2018-04-02T03:57:35.710Z,0.21
2018-04-02T04:00:01.578Z,0.13
2018-04-02T04:02:27.486Z,0.11
2018-04-02T04:04:53.341Z,0.05
2018-04-02T04:07:19.217Z,0.06
2018-04-02T04:09:45.165Z,0.10
2018-04-02T04:12:11.017Z,0.03
2018-04-02T04:14:36.857Z,0.03
2018-04-02T04:17:02.772Z,-0.02
2018-04-02T04:19:28.616Z,-0.05
2018-04-02T04:21:54.512Z,-0.06
2018-04-02T04:24:20.431Z,-0.09
2018-04-02T04:26:46.312Z,-0.13
2018-04-02T04:29:12.148Z,-0.09
2018-04-02T04:31:38.050Z,-0.07
2018-04-02T04:34:05.005Z,-0.19
2018-04-02T04:36:30.851Z,-0.25
2018-04-02T04:38:56.756Z,-0.22
2018-04-02T04:41:22.612Z,-0.17
2018-04-02T04:43:48.493Z,-0.26
2018-04-02T04:46:14.406Z,-0.26
2018-04-02T04:48:40.272Z,-0.28
2018-04-02T04:51:06.132Z,-0.23
2018-04-02T04:53:32.027Z,-0.27
2018-04-02T04:55:57.889Z,-0.29
2018-04-02T04:58:23.748Z,-0.18
2018-04-02T05:00:49.648Z,-0.24
2018-04-02T05:03:15.524Z,-0.15
2018-04-02T05:05:41.401Z,-0.12
2018-04-02T05:08:07.328Z,-0.13
2018-04-02T05:10:33.178Z,-0.07
2018-04-02T05:12:59.058Z,0.00
2018-04-02T05:15:24.963Z,0.03
2018-04-02T05:17:50.827Z,0.09
2018-04-02T05:20:16.685Z,0.15
2018-04-02T05:22:42.645Z,0.13
2018-04-02T05:25:08.514Z,0.22
2018-04-02T05:27:34.427Z,0.20
2018-04-02T05:30:00.309Z,0.26
2018-04-02T05:32:26.165Z,0.25
2018-04-02T05:34:52.029Z,0.30
2018-04-02T05:37:17.917Z,0.36
2018-04-02T05:39:43.949Z,0.39
2018-04-02T05:42:09.829Z,0.28
2018-04-02T05:44:35.741Z,0.34
2018-04-02T05:47:01.600Z,0.41
2018-04-02T05:49:27.748Z,0.37
2018-04-02T05:51:53.676Z,0.43
2018-04-02T05:54:19.612Z,0.42
2018-04-02T05:56:45.472Z,0.34
2018-04-02T05:59:11.377Z,0.34
2018-04-02T06:01:37.699Z,0.47
2018-04-02T06:04:03.681Z,0.52
2018-04-02T06:06:29.579Z,0.60
2018-04-02T06:08:55.444Z,0.62
2018-04-02T06:11:21.519Z,0.66
2018-04-02T06:13:47.444Z,0.73
2018-04-02T06:16:13.315Z,0.80
2018-04-02T06:18:39.247Z,0.77
2018-04-02T06:21:05.338Z,0.82
2018-04-02T06:23:31.266Z,0.90
2018-04-02T06:25:57.124Z,0.96
2018-04-02T06:28:23.121Z,1.04
2018-04-02T06:30:49.086Z,1.02
2018-04-02T06:33:14.957Z,1.07
2018-04-02T06:35:40.858Z,1.05
2018-04-02T06:38:06.725Z,1.11
2018-04-02T06:40:32.572Z,1.12
2018-04-02T06:42:59.516Z,1.10
2018-04-02T06:45:25.374Z,1.27
2018-04-02T06:47:51.220Z,1.37
2018-04-02T06:50:17.741Z,1.50
2018-04-02T06:52:43.725Z,1.50
2018-04-02T06:55:09.660Z,1.51
2018-04-02T06:57:35.669Z,1.67
2018-04-02T07:00:01.557Z,1.60
2018-04-02T07:02:27.459Z,1.74
2018-04-02T07:04:53.404Z,1.91
2018-04-02T07:07:19.350Z,1.97
2018-04-02T07:09:45.284Z,1.94
2018-04-02T07:12:11.547Z,1.97
2018-04-02T07:14:37.517Z,2.08
2018-04-02T07:17:03.468Z,2.18
2018-04-02T07:19:29.442Z,2.21
2018-04-02T07:21:55.300Z,2.32
2018-04-02T07:24:21.229Z,2.46
2018-04-02T07:26:47.144Z,2.51
2018-04-02T07:29:13.043Z,2.69
2018-04-02T07:31:38.943Z,2.69
2018-04-02T07:34:04.868Z,2.85
2018-04-02T07:36:30.725Z,2.94
2018-04-02T07:38:57.339Z,2.96
2018-04-02T07:41:23.274Z,3.26
2018-04-02T07:43:49.153Z,3.34
2018-04-02T07:46:15.000Z,3.57
2018-04-02T07:48:40.900Z,3.54
2018-04-02T07:51:06.754Z,3.55
2018-04-02T07:53:32.600Z,3.76
2018-04-02T07:55:58.523Z,3.91
2018-04-02T07:58:24.360Z,3.99
2018-04-02T08:00:50.218Z,4.14
2018-04-02T08:03:16.105Z,4.44
2018-04-02T08:05:41.945Z,4.70
2018-04-02T08:08:07.784Z,4.73
2018-04-02T08:10:33.729Z,4.72
2018-04-02T08:12:59.595Z,4.75
2018-04-02T08:15:25.481Z,4.71
2018-04-02T08:17:51.380Z,4.78
2018-04-02T08:20:17.257Z,5.13
2018-04-02T08:22:43.137Z,5.34
2018-04-02T08:25:09.171Z,5.23
2018-04-02T08:27:35.017Z,4.96
2018-04-02T08:30:00.868Z,4.87
2018-04-02T08:32:26.823Z,5.06
2018-04-02T08:34:52.656Z,5.01
2018-04-02T08:37:18.512Z,5.35
2018-04-02T08:39:44.421Z,5.56
2018-04-02T08:42:11.112Z,5.47
2018-04-02T08:44:37.414Z,6.02
2018-04-02T08:47:03.493Z,6.32
2018-04-02T08:49:29.345Z,6.20
2018-04-02T08:51:55.217Z,6.37
2018-04-02T08:54:21.142Z,6.80
2018-04-02T08:56:47.018Z,6.82
2018-04-02T08:59:12.881Z,6.87
2018-04-02T09:01:38.893Z,6.96
2018-04-02T09:04:04.745Z,6.94
2018-04-02T09:06:30.597Z,7.07
2018-04-02T09:08:56.506Z,7.27
2018-04-02T09:11:22.358Z,7.09
2018-04-02T09:13:48.222Z,7.57
2018-04-02T09:16:14.181Z,7.54
2018-04-02T09:18:40.049Z,7.81
2018-04-02T09:21:05.935Z,7.57
2018-04-02T09:23:31.851Z,7.84
2018-04-02T09:25:57.790Z,8.11
2018-04-02T09:28:23.666Z,7.95
2018-04-02T09:30:49.693Z,8.00
2018-04-02T09:33:15.571Z,7.83
2018-04-02T09:35:41.440Z,8.04
2018-04-02T09:38:07.363Z,8.23
2018-04-02T09:40:33.235Z,8.59
2018-04-02T09:42:59.097Z,8.72
2018-04-02T09:45:25.000Z,8.97
2018-04-02T09:47:50.857Z,8.75
2018-04-02T09:50:16.712Z,8.76
2018-04-02T09:52:42.613Z,8.80
2018-04-02T09:55:08.505Z,8.83
2018-04-02T09:57:34.367Z,8.77
2018-04-02T10:00:00.264Z,9.06
2018-04-02T10:02:26.140Z,9.20
2018-04-02T10:04:55.100Z,9.51
2018-04-02T10:07:20.950Z,9.45
2018-04-02T10:09:46.817Z,8.94
2018-04-02T10:12:12.736Z,8.62
2018-04-02T10:14:38.680Z,8.12
2018-04-02T10:17:04.693Z,8.31
2018-04-02T10:19:30.570Z,8.68
2018-04-02T10:21:56.479Z,9.12
2018-04-02T10:24:22.341Z,9.43
2018-04-02T10:26:48.259Z,9.84
2018-04-02T10:29:14.250Z,9.96
2018-04-02T10:31:40.069Z,10.44
2018-04-02T10:34:05.933Z,10.59
2018-04-02T10:36:31.839Z,10.79
2018-04-02T10:38:57.701Z,10.76
2018-04-02T10:41:23.556Z,9.71
2018-04-02T10:43:49.476Z,9.61
2018-04-02T10:46:15.336Z,9.54
2018-04-02T10:48:41.216Z,10.14
2018-04-02T10:51:07.125Z,10.02
2018-04-02T10:53:32.990Z,10.44
2018-04-02T10:55:58.871Z,10.72
2018-04-02T10:58:24.772Z,10.87
2018-04-02T11:00:50.652Z,11.20
2018-04-02T11:03:16.521Z,11.43
2018-04-02T11:05:42.448Z,11.40
2018-04-02T11:08:08.349Z,11.38
2018-04-02T11:10:34.209Z,11.45
2018-04-02T11:13:00.107Z,11.34
2018-04-02T11:15:25.990Z,11.49
2018-04-02T11:17:51.870Z,11.26
2018-04-02T11:20:17.815Z,11.42
2018-04-02T11:22:43.692Z,11.26
2018-04-02T11:25:09.576Z,11.21
2018-04-02T11:27:35.551Z,11.66
2018-04-02T11:30:01.430Z,11.43
2018-04-02T11:32:27.309Z,11.87
2018-04-02T11:34:53.225Z,12.32
2018-04-02T11:37:19.080Z,12.11
2018-04-02T11:39:44.946Z,11.54
2018-04-02T11:42:10.853Z,11.36
2018-04-02T11:44:36.735Z,11.51
2018-04-02T11:47:02.617Z,11.59
2018-04-02T11:49:28.535Z,11.42
2018-04-02T11:51:54.413Z,11.62
2018-04-02T11:54:20.285Z,12.12
2018-04-02T11:56:46.181Z,11.98
2018-04-02T11:59:12.089Z,11.76
2018-04-02T12:01:37.982Z,11.47
2018-04-02T12:04:03.898Z,10.99
2018-04-02T12:06:29.885Z,11.13
2018-04-02T12:08:55.755Z,10.97
2018-04-02T12:11:21.654Z,10.92
2018-04-02T12:13:47.537Z,10.70
2018-04-02T12:16:13.437Z,10.90
2018-04-02T12:18:39.355Z,10.84
2018-04-02T12:21:05.245Z,10.91
2018-04-02T12:23:31.093Z,10.53
2018-04-02T12:25:57.044Z,10.42
2018-04-02T12:28:22.996Z,10.41
2018-04-02T12:30:48.889Z,10.78
2018-04-02T12:33:14.797Z,10.96
2018-04-02T12:35:40.675Z,10.83
2018-04-02T12:38:06.541Z,11.02
2018-04-02T12:40:32.647Z,11.08
2018-04-02T12:42:58.536Z,10.97
2018-04-02T12:45:24.411Z,11.23
2018-04-02T12:47:50.348Z,11.50
2018-04-02T12:50:16.257Z,11.45
2018-04-02T12:52:42.199Z,11.43
2018-04-02T12:55:08.119Z,11.38
2018-04-02T12:57:34.009Z,11.26
2018-04-02T12:59:59.971Z,11.49
2018-04-02T13:02:25.864Z,11.37
2018-04-02T13:04:51.837Z,11.37
2018-04-02T13:07:17.689Z,11.27
2018-04-02T13:09:43.937Z,11.28
2018-04-02T13:12:09.815Z,11.12
2018-04-02T13:14:35.676Z,10.76
2018-04-02T13:17:01.691Z,10.60
2018-04-02T13:19:27.665Z,10.52
2018-04-02T13:21:53.521Z,10.49
2018-04-02T13:24:19.447Z,10.57
2018-04-02T13:26:45.313Z,10.55
2018-04-02T13:29:11.271Z,10.29
2018-04-02T13:31:37.253Z,10.27
2018-04-02T13:34:03.099Z,10.26
2018-04-02T13:36:28.977Z,10.27
2018-04-02T13:38:54.889Z,10.44
2018-04-02T13:41:20.851Z,10.43
2018-04-02T13:43:46.779Z,10.30
2018-04-02T13:46:12.697Z,10.41
2018-04-02T13:48:38.574Z,10.79
2018-04-02T13:51:04.440Z,11.11
2018-04-02T13:53:30.418Z,11.31
2018-04-02T13:55:56.282Z,11.45
2018-04-02T13:58:22.270Z,11.35
2018-04-02T14:00:48.176Z,11.31
2018-04-02T14:03:14.050Z,11.16
2018-04-02T14:05:39.934Z,11.10
2018-04-02T14:08:05.854Z,11.23
2018-04-02T14:10:31.841Z,11.02
2018-04-02T14:12:57.712Z,10.81
2018-04-02T14:15:23.635Z,10.83
2018-04-02T14:17:49.513Z,10.82
2018-04-02T14:20:15.407Z,10.84
2018-04-02T14:22:41.354Z,10.86
2018-04-02T14:25:07.242Z,10.89
2018-04-02T14:27:33.146Z,10.92
2018-04-02T14:29:59.064Z,10.59
2018-04-02T14:32:24.953Z,10.52
2018-04-02T14:34:50.869Z,10.82
2018-04-02T14:37:16.802Z,11.18
2018-04-02T14:39:42.704Z,11.23
2018-04-02T14:42:08.671Z,11.06
2018-04-02T14:44:34.597Z,10.96
2018-04-02T14:47:00.533Z,10.92
2018-04-02T14:49:26.483Z,11.09
2018-04-02T14:51:52.418Z,10.93
2018-04-02T14:54:18.421Z,10.93
2018-04-02T14:56:44.284Z,11.24
2018-04-02T14:59:10.198Z,11.25
2018-04-02T15:01:36.058Z,11.31
2018-04-02T15:04:01.955Z,11.51
2018-04-02T15:06:27.906Z,11.46
2018-04-02T15:08:53.801Z,11.27
2018-04-02T15:11:19.694Z,11.17
2018-04-02T15:13:45.605Z,10.98
2018-04-02T15:16:11.592Z,10.71
2018-04-02T15:18:37.482Z,10.55
2018-04-02T15:21:03.404Z,10.67
2018-04-02T15:23:29.285Z,10.60
2018-04-02T15:25:55.273Z,10.61
2018-04-02T15:28:21.226Z,10.59
2018-04-02T15:30:47.089Z,10.51
2018-04-02T15:33:12.967Z,10.52
2018-04-02T15:35:38.927Z,10.46
2018-04-02T15:38:04.790Z,10.56
2018-04-02T15:40:30.673Z,10.51
2018-04-02T15:42:56.614Z,10.73
2018-04-02T15:45:23.437Z,10.90
2018-04-02T15:47:49.319Z,11.13
2018-04-02T15:50:15.213Z,11.20
2018-04-02T15:52:41.318Z,11.29
2018-04-02T15:55:07.245Z,11.42
2018-04-02T15:57:33.145Z,11.41
2018-04-02T15:59:59.022Z,11.59
2018-04-02T16:02:24.884Z,11.60
2018-04-02T16:04:50.791Z,11.42
2018-04-02T16:07:16.819Z,11.08
2018-04-02T16:09:42.690Z,11.01
2018-04-02T16:12:08.605Z,11.01
2018-04-02T16:14:34.459Z,10.95
2018-04-02T16:17:00.362Z,10.92
2018-04-02T16:19:26.440Z,10.84
2018-04-02T16:21:52.334Z,10.70
2018-04-02T16:24:18.207Z,10.69
2018-04-02T16:26:44.117Z,10.55
2018-04-02T16:29:10.075Z,10.50
2018-04-02T16:31:35.946Z,10.51
2018-04-02T16:34:01.855Z,10.41
2018-04-02T16:36:27.783Z,10.26
2018-04-02T16:38:53.716Z,10.27
2018-04-02T16:41:19.667Z,10.21
2018-04-02T16:43:46.150Z,10.13
2018-04-02T16:46:12.057Z,10.02
2018-04-02T16:48:38.006Z,9.91
2018-04-02T16:51:03.919Z,9.73
2018-04-02T16:53:29.793Z,9.70
2018-04-02T16:55:55.991Z,9.52
2018-04-02T16:58:21.890Z,9.37
2018-04-02T17:00:47.858Z,9.24
2018-04-02T17:03:13.911Z,9.17
2018-04-02T17:05:39.821Z,9.04
2018-04-02T17:08:06.002Z,9.01
2018-04-02T17:10:31.900Z,8.92
2018-04-02T17:12:57.821Z,8.86
2018-04-02T17:15:23.727Z,8.95
2018-04-02T17:17:49.964Z,8.90
2018-04-02T17:20:15.895Z,8.84
2018-04-02T17:22:41.815Z,8.72
2018-04-02T17:25:07.904Z,8.72
2018-04-02T17:27:34.226Z,8.76
2018-04-02T17:30:00.212Z,8.77
2018-04-02T17:32:26.378Z,8.72
2018-04-02T17:34:52.313Z,8.65
2018-04-02T17:37:18.222Z,8.54
2018-04-02T17:39:44.628Z,8.35
2018-04-02T17:42:10.496Z,8.29
2018-04-02T17:44:36.363Z,8.25
2018-04-02T17:47:02.328Z,8.25
2018-04-02T17:49:28.210Z,8.24
2018-04-02T17:51:54.472Z,8.15
2018-04-02T17:54:20.465Z,8.01
2018-04-02T17:56:46.468Z,7.96
2018-04-02T17:59:12.359Z,7.84
2018-04-02T18:01:38.409Z,7.82
2018-04-02T18:04:04.282Z,7.77
2018-04-02T18:06:30.159Z,7.93
2018-04-02T18:08:56.129Z,7.92
2018-04-02T18:11:22.065Z,7.94
2018-04-02T18:13:47.941Z,7.88
2018-04-02T18:16:13.873Z,7.94
2018-04-02T18:18:39.745Z,7.84
2018-04-02T18:21:05.824Z,7.85
2018-04-02T18:23:32.069Z,7.89
2018-04-02T18:25:57.934Z,7.83
2018-04-02T18:28:24.283Z,7.94
2018-04-02T18:30:50.217Z,7.84
2018-04-02T18:33:16.341Z,7.79
2018-04-02T18:35:42.197Z,7.81
2018-04-02T18:38:08.123Z,7.74
2018-04-02T18:40:34.003Z,7.80
2018-04-02T18:42:59.901Z,7.73
2018-04-02T18:45:25.946Z,7.68
2018-04-02T18:47:51.806Z,7.75
2018-04-02T18:50:17.670Z,7.80
2018-04-02T18:52:43.602Z,7.82
2018-04-02T18:55:09.468Z,7.80
2018-04-02T18:57:35.531Z,7.81
2018-04-02T19:00:01.428Z,7.88
2018-04-02T19:02:27.268Z,7.92
2018-04-02T19:04:53.181Z,7.87
2018-04-02T19:07:19.097Z,7.81
2018-04-02T19:09:45.004Z,7.80
2018-04-02T19:12:10.864Z,7.77
2018-04-02T19:14:36.760Z,7.75
2018-04-02T19:17:02.630Z,7.71
2018-04-02T19:19:28.476Z,7.69
2018-04-02T19:21:54.373Z,7.66
2018-04-02T19:24:20.220Z,7.65
2018-04-02T19:26:46.072Z,7.62
2018-04-02T19:29:11.957Z,7.67
2018-04-02T19:31:38.176Z,7.68
2018-04-02T19:34:04.024Z,7.66
2018-04-02T19:36:29.931Z,7.63
2018-04-02T19:38:55.812Z,7.58
2018-04-02T19:41:21.660Z,7.53
2018-04-02T19:43:47.560Z,7.55
2018-04-02T19:46:13.944Z,7.48
2018-04-02T19:48:39.825Z,7.42
2018-04-02T19:51:05.751Z,7.35
2018-04-02T19:53:31.611Z,7.32
2018-04-02T19:55:57.472Z,7.28
2018-04-02T19:58:23.359Z,7.27
2018-04-02T20:00:49.243Z,7.20
2018-04-02T20:03:15.109Z,7.27
2018-04-02T20:05:41.013Z,7.21
2018-04-02T20:08:06.940Z,7.16
2018-04-02T20:10:32.857Z,7.12
2018-04-02T20:12:58.998Z,7.17
2018-04-02T20:15:24.903Z,7.12
2018-04-02T20:17:50.786Z,7.12
2018-04-02T20:20:16.782Z,7.13
2018-04-02T20:22:42.653Z,7.02
2018-04-02T20:25:08.522Z,7.01
2018-04-02T20:27:34.415Z,6.96
2018-04-02T20:30:00.270Z,6.93
2018-04-02T20:32:26.150Z,6.94
2018-04-02T20:34:52.037Z,7.00
2018-04-02T20:37:17.880Z,6.96
2018-04-02T20:39:43.728Z,6.99
2018-04-02T20:42:09.800Z,7.00
2018-04-02T20:44:35.645Z,7.03
2018-04-02T20:47:01.554Z,7.03
2018-04-02T20:49:27.483Z,7.06
2018-04-02T20:51:53.372Z,7.05
2018-04-02T20:54:19.238Z,7.07
2018-04-02T20:56:45.148Z,7.06
2018-04-02T20:59:11.005Z,7.06
2018-04-02T21:01:36.974Z,7.04
2018-04-02T21:04:02.968Z,7.01
2018-04-02T21:06:28.883Z,7.02
2018-04-02T21:08:54.773Z,7.08
2018-04-02T21:11:20.748Z,7.08
2018-04-02T21:13:46.601Z,7.03
2018-04-02T21:16:12.450Z,6.99
2018-04-02T21:18:38.349Z,6.95
2018-04-02T21:21:04.196Z,6.94
2018-04-02T21:23:30.049Z,6.92
2018-04-02T21:25:55.955Z,6.87
2018-04-02T21:28:22.149Z,6.90
2018-04-02T21:30:48.045Z,6.93
2018-04-02T21:33:13.941Z,6.93
2018-04-02T21:35:39.809Z,6.97
2018-04-02T21:38:05.659Z,6.93
2018-04-02T21:40:31.544Z,6.93
2018-04-02T21:42:57.414Z,6.88
2018-04-02T21:45:23.341Z,6.81
2018-04-02T21:47:49.236Z,6.81
2018-04-02T21:50:15.093Z,6.79
2018-04-02T21:52:40.953Z,6.72
2018-04-02T21:55:06.854Z,6.68
2018-04-02T21:57:32.716Z,6.70
2018-04-02T21:59:58.606Z,6.69
2018-04-02T22:02:24.584Z,6.61
2018-04-02T22:04:50.449Z,6.57
2018-04-02T22:07:19.193Z,6.56
2018-04-02T22:09:45.327Z,6.55
2018-04-02T22:12:11.208Z,6.48
2018-04-02T22:14:37.077Z,6.39
2018-04-02T22:17:02.981Z,6.37
2018-04-02T22:19:28.838Z,6.28
2018-04-02T22:21:54.741Z,6.30
2018-04-02T22:24:20.658Z,6.21
2018-04-02T22:26:46.541Z,6.20
2018-04-02T22:29:12.412Z,6.15
2018-04-02T22:31:38.321Z,6.11
2018-04-02T22:34:04.222Z,6.04
2018-04-02T22:36:30.123Z,6.02
2018-04-02T22:38:56.009Z,6.03
2018-04-02T22:41:21.889Z,5.95
2018-04-02T22:43:47.757Z,5.92
2018-04-02T22:46:13.663Z,5.91
2018-04-02T22:48:39.537Z,5.92
2018-04-02T22:51:05.438Z,5.86
2018-04-02T22:53:31.353Z,5.88
2018-04-02T22:55:57.231Z,5.75
2018-04-02T22:58:23.098Z,5.78
2018-04-02T23:00:49.016Z,5.75
2018-04-02T23:03:14.949Z,5.78
2018-04-02T23:05:40.801Z,5.81
2018-04-02T23:08:06.713Z,5.82
2018-04-02T23:10:32.593Z,5.83
2018-04-02T23:12:58.454Z,5.80
2018-04-02T23:15:24.363Z,5.79
2018-04-02T23:17:50.249Z,5.78
2018-04-02T23:20:16.280Z,5.83
2018-04-02T23:22:51.446Z,5.83
2018-04-02T23:25:17.326Z,5.85
2018-04-02T23:27:43.184Z,5.84
2018-04-02T23:30:09.149Z,5.81
2018-04-02T23:32:35.025Z,5.86
2018-04-02T23:35:00.888Z,5.85
2018-04-02T23:37:26.796Z,5.85
2018-04-02T23:39:52.661Z,5.88
2018-04-02T23:42:18.508Z,5.93
2018-04-02T23:44:44.405Z,5.93
2018-04-02T23:47:10.261Z,6.03
2018-04-02T23:49:36.116Z,6.09
2018-04-02T23:52:02.024Z,6.17
2018-04-02T23:54:27.909Z,6.22
2018-04-02T23:56:53.766Z,6.28
2018-04-02T23:59:19.669Z,6.32
